Alvin, Illinois
Current Conditions -  °F | °C
As of 7:35 PM on Monday 24 Nov 2014 (Local Time) from KDNV Reporting Station
Overcast Overcast  
Wind Chill: 22°   Ceiling: 3000
Heat Index: 33°   Visibility: 10mi
Dew Point: 27°   Wind: 18mph
Humidity: 77%   Direction: 240°WSW
Pressure: 29.81"   Gusts: 26mph
Location:  40.31°N, 87.61°W
Report Text: KDNV 250135Z AUTO 24016G23KT 10SM BKN030 OVC035 01/M03 A2981 RMK AO2 T00061030
Loading
Personal Weather Stations






























Interactive Weather Map New forecast layout! Learn more

10-Day Weather Forecast

Advertisements
Track Severe Weather on mobile